createdAt,value
2023-02-24T00:05:03.996Z,4.00
2023-02-24T00:11:14.456Z,4.00
2023-02-24T00:17:17.075Z,3.90
2023-02-24T00:23:18.976Z,3.90
2023-02-24T00:29:20.968Z,3.80
2023-02-24T00:35:22.712Z,3.80
2023-02-24T00:41:30.400Z,3.90
2023-02-24T00:47:33.741Z,3.80
2023-02-24T00:53:35.928Z,3.80
2023-02-24T00:59:38.419Z,3.80
2023-02-24T01:05:40.269Z,3.90
2023-02-24T01:12:02.039Z,4.00
2023-02-24T01:18:04.007Z,4.00
2023-02-24T01:24:06.395Z,4.00
2023-02-24T01:30:16.105Z,4.00
2023-02-24T01:36:21.324Z,4.00
2023-02-24T01:42:24.046Z,4.00
2023-02-24T01:48:27.589Z,4.00
2023-02-24T01:54:43.117Z,4.00
2023-02-24T02:00:46.829Z,4.00
2023-02-24T02:06:48.981Z,3.90
2023-02-24T02:12:51.319Z,3.90
2023-02-24T02:19:23.930Z,3.90
2023-02-24T02:25:46.755Z,3.90
2023-02-24T02:32:31.727Z,3.90
2023-02-24T02:39:01.001Z,3.90
2023-02-24T02:45:33.293Z,3.90
2023-02-24T02:51:44.658Z,3.70
2023-02-24T02:57:49.122Z,3.70
2023-02-24T03:03:56.406Z,3.70
2023-02-24T03:10:06.085Z,3.50
2023-02-24T03:16:10.877Z,3.50
2023-02-24T03:22:18.977Z,3.40
2023-02-24T03:28:35.867Z,3.30
2023-02-24T03:34:49.496Z,3.20
2023-02-24T03:40:52.081Z,3.20
2023-02-24T03:46:55.787Z,3.10
2023-02-24T04:00:48.248Z,2.80
2023-02-24T04:07:02.379Z,2.80
2023-02-24T04:13:35.510Z,2.60
2023-02-24T04:19:41.584Z,2.50
2023-02-24T04:25:47.495Z,2.40
2023-02-24T04:31:55.227Z,2.30
2023-02-24T04:37:57.623Z,2.20
2023-02-24T04:43:59.474Z,2.00
2023-02-24T04:50:01.225Z,2.00
2023-02-24T04:56:09.210Z,1.90
2023-02-24T05:02:11.124Z,1.90
2023-02-24T05:08:15.897Z,2.00
2023-02-24T05:14:21.190Z,2.10
2023-02-24T05:20:59.485Z,2.20
2023-02-24T05:27:03.942Z,2.20
2023-02-24T05:33:08.225Z,2.20
2023-02-24T05:39:12.323Z,2.30
2023-02-24T05:45:14.632Z,2.50
2023-02-24T05:51:17.150Z,2.50
2023-02-24T05:57:21.405Z,2.50
2023-02-24T06:03:31.228Z,2.40
2023-02-24T06:09:34.713Z,2.30
2023-02-24T06:15:37.657Z,2.30
2023-02-24T06:21:41.696Z,2.30
2023-02-24T06:27:43.736Z,2.30
2023-02-24T06:33:45.707Z,2.30
2023-02-24T06:39:48.043Z,2.30
2023-02-24T06:45:50.352Z,2.40
2023-02-24T06:51:52.433Z,2.40
2023-02-24T06:58:04.468Z,2.40
2023-02-24T07:04:09.054Z,2.40
2023-02-24T07:10:14.566Z,2.40
2023-02-24T07:16:25.282Z,2.40
2023-02-24T07:22:27.598Z,2.50
2023-02-24T07:28:29.345Z,2.50
2023-02-24T07:34:31.984Z,2.50
2023-02-24T07:40:34.175Z,2.50
2023-02-24T07:46:36.052Z,2.50
2023-02-24T07:52:38.755Z,2.50
2023-02-24T07:58:45.422Z,2.50
2023-02-24T08:04:51.650Z,2.60
2023-02-24T08:11:03.979Z,2.60
2023-02-24T08:17:05.777Z,2.60
2023-02-24T08:23:11.241Z,2.70
2023-02-24T08:29:13.296Z,2.70
2023-02-24T08:35:19.826Z,2.80
2023-02-24T08:41:29.250Z,2.80
2023-02-24T08:47:31.263Z,2.90
2023-02-24T08:53:33.488Z,2.90
2023-02-24T08:59:48.548Z,3.00
2023-02-24T09:05:50.872Z,3.00
2023-02-24T09:11:58.266Z,2.90
2023-02-24T09:18:07.501Z,2.80
2023-02-24T09:24:12.666Z,2.80
2023-02-24T09:30:33.889Z,2.70
2023-02-24T09:36:44.952Z,2.70
2023-02-24T09:42:47.216Z,2.60
2023-02-24T09:49:05.548Z,2.40
2023-02-24T09:55:27.924Z,2.40
2023-02-24T10:02:02.285Z,2.50
2023-02-24T10:08:17.912Z,2.50
2023-02-24T10:14:43.720Z,2.50
2023-02-24T10:20:49.596Z,2.50
2023-02-24T10:27:01.273Z,2.50
2023-02-24T10:33:27.442Z,2.40
2023-02-24T10:39:33.492Z,2.40
2023-02-24T10:45:45.648Z,2.50
2023-02-24T10:51:53.318Z,2.60
2023-02-24T10:58:07.531Z,2.70
2023-02-24T11:04:33.602Z,2.70
2023-02-24T11:10:53.215Z,2.70
2023-02-24T11:17:13.922Z,2.60
2023-02-24T11:23:20.460Z,2.50
2023-02-24T11:29:28.471Z,2.50
2023-02-24T11:35:35.441Z,2.40
2023-02-24T11:41:45.689Z,2.30
2023-02-24T11:47:57.456Z,2.30
2023-02-24T11:54:15.150Z,2.20
2023-02-24T12:00:30.958Z,2.20
2023-02-24T12:06:52.047Z,2.20
2023-02-24T12:13:14.619Z,2.30
2023-02-24T12:19:23.850Z,2.30
2023-02-24T12:25:36.683Z,2.30
2023-02-24T12:31:41.814Z,2.30
2023-02-24T12:38:15.157Z,2.30
2023-02-24T12:44:38.322Z,2.30
2023-02-24T12:51:15.827Z,2.30
2023-02-24T12:57:27.619Z,2.30
2023-02-24T13:03:49.857Z,2.30
2023-02-24T13:10:18.273Z,2.30
2023-02-24T13:16:31.434Z,2.20
2023-02-24T13:22:33.725Z,2.30
2023-02-24T13:28:38.443Z,2.30
2023-02-24T13:34:45.336Z,2.40
2023-02-24T13:40:47.106Z,2.50
2023-02-24T13:47:34.331Z,2.60
2023-02-24T13:54:06.755Z,2.70
2023-02-24T14:00:22.036Z,2.80
2023-02-24T14:06:27.162Z,2.70
2023-02-24T14:12:32.203Z,2.80
2023-02-24T14:18:34.287Z,2.90
2023-02-24T14:24:36.137Z,2.90
2023-02-24T14:30:40.327Z,3.00
2023-02-24T14:36:45.543Z,2.90
2023-02-24T14:42:49.214Z,3.00
2023-02-24T14:48:56.457Z,3.10
2023-02-24T14:55:18.280Z,3.20
2023-02-24T15:01:39.759Z,3.10
2023-02-24T15:07:45.324Z,3.20
2023-02-24T15:13:55.166Z,3.20
2023-02-24T15:19:57.080Z,3.30
2023-02-24T15:25:59.488Z,3.30
2023-02-24T15:32:07.285Z,3.30
2023-02-24T15:38:25.109Z,3.40
2023-02-24T15:44:32.501Z,3.50
2023-02-24T15:50:34.272Z,3.60
2023-02-24T15:56:36.912Z,3.70
2023-02-24T16:02:39.387Z,3.60
2023-02-24T16:08:44.961Z,3.70
2023-02-24T16:14:48.515Z,3.70
2023-02-24T16:20:55.603Z,3.70
2023-02-24T16:26:57.707Z,3.70
2023-02-24T16:33:01.332Z,3.70
2023-02-24T16:39:05.162Z,3.70
2023-02-24T16:45:07.658Z,3.80
2023-02-24T16:51:11.377Z,3.90
2023-02-24T16:57:13.166Z,3.90
2023-02-24T17:03:30.542Z,3.80
2023-02-24T17:09:33.600Z,3.90
2023-02-24T17:15:35.421Z,4.10
2023-02-24T17:21:42.334Z,4.20
2023-02-24T17:27:47.194Z,4.20
2023-02-24T17:33:48.993Z,4.20
2023-02-24T17:39:50.783Z,4.30
2023-02-24T17:45:53.181Z,4.20
2023-02-24T17:51:55.231Z,4.20
2023-02-24T17:57:59.404Z,4.20
2023-02-24T18:04:01.141Z,4.30
2023-02-24T18:10:03.934Z,4.30
2023-02-24T18:16:14.050Z,4.40
2023-02-24T18:22:16.455Z,4.40
2023-02-24T18:28:18.359Z,4.30
2023-02-24T18:34:20.909Z,4.30
2023-02-24T18:40:25.925Z,4.20
2023-02-24T18:46:28.847Z,4.20
2023-02-24T18:52:32.788Z,4.20
2023-02-24T18:58:37.487Z,4.00
2023-02-24T19:04:40.156Z,3.90
2023-02-24T19:10:44.240Z,3.90
2023-02-24T19:16:47.041Z,3.90
2023-02-24T19:22:51.795Z,4.00
2023-02-24T19:28:55.476Z,3.90
2023-02-24T19:34:58.175Z,3.80
2023-02-24T19:41:00.280Z,3.80
2023-02-24T19:47:02.209Z,3.80
2023-02-24T19:53:04.162Z,3.80
2023-02-24T19:59:07.974Z,3.90
2023-02-24T20:05:10.505Z,3.90
2023-02-24T20:11:12.383Z,3.90
2023-02-24T20:17:16.614Z,3.90
2023-02-24T20:23:22.348Z,3.90
2023-02-24T20:29:24.550Z,3.80
2023-02-24T20:35:28.369Z,3.80
2023-02-24T20:41:30.597Z,3.80
2023-02-24T20:47:32.548Z,3.80
2023-02-24T20:53:47.861Z,3.70
2023-02-24T21:00:03.571Z,3.70
2023-02-24T21:06:10.208Z,3.70
2023-02-24T21:12:12.624Z,3.70
2023-02-24T21:18:15.352Z,3.70
2023-02-24T21:24:18.405Z,3.60
2023-02-24T21:30:21.586Z,3.70
2023-02-24T21:36:26.433Z,3.70
2023-02-24T21:42:28.839Z,3.70
2023-02-24T21:48:31.598Z,3.70
2023-02-24T21:54:34.540Z,3.70
2023-02-24T22:00:37.065Z,3.70
2023-02-24T22:06:41.374Z,3.60
2023-02-24T22:12:43.736Z,3.70
2023-02-24T22:18:47.030Z,3.70
2023-02-24T22:24:51.588Z,3.70
2023-02-24T22:30:58.584Z,3.70
2023-02-24T22:37:01.263Z,3.70
2023-02-24T22:43:05.376Z,3.60
2023-02-24T22:49:07.879Z,3.60
2023-02-24T22:55:10.692Z,3.40
2023-02-24T23:01:17.305Z,3.40
2023-02-24T23:07:20.376Z,3.40
2023-02-24T23:13:22.648Z,3.30
2023-02-24T23:19:24.842Z,3.40
2023-02-24T23:25:26.869Z,3.40
2023-02-24T23:31:29.890Z,3.40
2023-02-24T23:37:32.899Z,3.40
2023-02-24T23:43:35.022Z,3.30
2023-02-24T23:49:47.828Z,3.40
2023-02-24T23:55:50.851Z,3.40
